ADDS METAR Data

Data at: 0507 UTC 20 Apr 2018

METAR for:KHTO (East Hampton Arpt, NY, US)
Text:KHTO 200455Z AUTO 31007G14KT 10SM CLR 03/M03 A2994 RMK AO2 T00311035 400560031
Temperature: 3.1°C ( 38°F)
Dewpoint: -3.5°C ( 26°F) [RH = 62%]
Pressure (altimeter):29.94 inches Hg (1014.0 mb)
Winds:from the NW (310 degrees) at 8 MPH (7 knots; 3.6 m/s) gusting to 16 MPH (14 knots; 7.2 m/s)
Visibility:10 or more sm (16+ km)
Ceiling:at least 12,000 feet AGL
Clouds:sky clear below 12,000 feet AGL
QC Flag:automated observation with no human augmentation